Time;durP1;ratioP1;P1;durP2;ratioP2;P2;SDS_P1;SDS_P2;PMS_P1;PMS_P2;Temp;Humidity;BMP_temperature;BMP_pressure;BME280_temperature;BME280_humidity;BME280_pressure;Samples;Min_cycle;Max_cycle;Signal;HPM_P1;HPM_P2
2022/06/08 00:01:43;;;;;;;4.53;2.33;;;;;;;;;;4996504;28;20032;-85
2022/06/08 00:04:11;;;;;;;2.78;2.47;;;;;;;;;;4978811;28;20113;-85
2022/06/08 00:06:36;;;;;;;3.13;2.15;;;;;;;;;;4994946;28;20101;-85
2022/06/08 00:09:02;;;;;;;2.58;2.35;;;;;;;;;;4995201;28;20118;-85
2022/06/08 00:11:27;;;;;;;2.42;2.22;;;;;;;;;;4978729;28;20042;-85
2022/06/08 00:13:53;;;;;;;3.38;2.38;;;;;;;;;;4978458;28;20097;-86
2022/06/08 00:16:19;;;;;;;3.28;2.08;;;;;;;;;;4995129;28;20048;-86
2022/06/08 00:18:45;;;;;;;2.47;2.28;;;;;;;;;;4980853;28;20093;-86
2022/06/08 00:21:11;;;;;;;2.72;2.42;;;;;;;;;;4997435;28;20114;-85
2022/06/08 00:23:37;;;;;;;2.35;1.98;;;;;;;;;;5003791;28;20027;-85
2022/06/08 00:26:03;;;;;;;2.50;2.10;;;;;;;;;;4998989;28;20037;-85
2022/06/08 00:28:29;;;;;;;2.83;2.50;;;;;;;;;;4995215;28;20414;-85
2022/06/08 00:30:54;;;;;;;4.10;2.40;;;;;;;;;;4995084;28;20033;-84
2022/06/08 00:33:20;;;;;;;2.92;2.40;;;;;;;;;;4994392;28;20482;-85
2022/06/08 00:35:45;;;;;;;2.67;2.38;;;;;;;;;;4994625;28;20113;-85
2022/06/08 00:38:10;;;;;;;4.60;2.50;;;;;;;;;;4978038;28;20030;-85
2022/06/08 00:41:30;;;;;;;5.20;2.20;;;;;;;;;;4994707;28;20022;-85
2022/06/08 00:43:56;;;;;;;2.58;2.28;;;;;;;;;;4938473;29;20034;-85
2022/06/08 00:46:21;;;;;;;5.63;2.42;;;;;;;;;;4989806;28;20046;-85
2022/06/08 00:48:54;;;;;;;2.63;2.42;;;;;;;;;;4994549;28;20030;-85
2022/06/08 00:51:19;;;;;;;3.70;2.70;;;;;;;;;;4978454;28;20023;-85
2022/06/08 00:54:00;;;;;;;2.75;2.40;;;;;;;;;;4977931;28;20034;-85
2022/06/08 00:56:30;;;;;;;3.92;2.60;;;;;;;;;;4977762;28;20023;-85
2022/06/08 00:58:57;;;;;;;4.38;2.33;;;;;;;;;;4994108;28;20026;-85
2022/06/08 01:01:23;;;;;;;2.40;2.20;;;;;;;;;;4994351;28;20032;-85
2022/06/08 01:03:49;;;;;;;3.88;2.60;;;;;;;;;;4993580;28;20037;-85
2022/06/08 01:06:22;;;;;;;3.65;2.60;;;;;;;;;;4993913;28;20113;-85
2022/06/08 01:08:53;;;;;;;2.80;2.30;;;;;;;;;;4994958;28;20042;-84
2022/06/08 01:11:35;;;;;;;4.70;2.47;;;;;;;;;;4995444;28;20042;-85
2022/06/08 01:14:03;;;;;;;2.90;2.60;;;;;;;;;;4994021;28;20050;-85
2022/06/08 01:16:30;;;;;;;5.32;2.42;;;;;;;;;;4993677;28;20022;-85
2022/06/08 01:18:55;;;;;;;2.95;2.20;;;;;;;;;;4995318;28;20033;-86
2022/06/08 01:21:21;;;;;;;4.90;2.55;;;;;;;;;;4995234;28;20030;-85
2022/06/08 01:24:07;;;;;;;2.90;2.40;;;;;;;;;;4993410;28;20126;-86
2022/06/08 01:26:49;;;;;;;2.42;2.10;;;;;;;;;;4993563;28;20026;-86
2022/06/08 01:29:29;;;;;;;3.42;2.40;;;;;;;;;;4976993;28;20030;-86
2022/06/08 01:31:57;;;;;;;2.88;2.42;;;;;;;;;;4993319;28;20438;-85
2022/06/08 01:34:33;;;;;;;2.70;2.38;;;;;;;;;;4994768;28;20026;-86
2022/06/08 01:37:14;;;;;;;3.25;2.40;;;;;;;;;;4993185;28;20026;-85
2022/06/08 01:39:48;;;;;;;2.92;2.22;;;;;;;;;;4993238;28;20113;-85
2022/06/08 01:42:22;;;;;;;3.35;2.28;;;;;;;;;;4994060;28;20050;-86
2022/06/08 01:45:30;;;;;;;2.50;2.30;;;;;;;;;;4993032;28;20092;-86
2022/06/08 01:47:55;;;;;;;3.60;2.60;;;;;;;;;;4994374;28;20119;-86
2022/06/08 01:50:30;;;;;;;5.85;2.40;;;;;;;;;;4994899;28;20044;-86
2022/06/08 01:53:11;;;;;;;3.63;2.72;;;;;;;;;;4994065;28;20034;-86
2022/06/08 01:55:53;;;;;;;3.10;2.28;;;;;;;;;;4992918;28;20027;-85
2022/06/08 01:58:24;;;;;;;3.38;2.42;;;;;;;;;;4992549;28;20502;-86
2022/06/08 02:00:59;;;;;;;5.57;2.28;;;;;;;;;;4992383;28;20029;-86
2022/06/08 02:03:31;;;;;;;6.07;2.78;;;;;;;;;;4976750;28;20450;-86
2022/06/08 02:05:58;;;;;;;3.75;2.80;;;;;;;;;;4992999;28;20026;-85
2022/06/08 02:08:40;;;;;;;3.92;2.78;;;;;;;;;;4993403;28;20026;-86
2022/06/08 02:11:23;;;;;;;4.45;2.92;;;;;;;;;;4993026;28;20026;-86
2022/06/08 02:14:00;;;;;;;3.88;2.60;;;;;;;;;;4992699;28;20037;-86
2022/06/08 02:16:39;;;;;;;3.85;2.75;;;;;;;;;;4992675;28;20394;-86
2022/06/08 02:19:09;;;;;;;3.33;2.65;;;;;;;;;;4992849;28;20018;-85
2022/06/08 02:21:42;;;;;;;3.55;2.53;;;;;;;;;;4993158;28;20034;-86
2022/06/08 02:24:26;;;;;;;4.10;2.75;;;;;;;;;;4993245;28;20084;-86
2022/06/08 02:27:01;;;;;;;3.47;2.70;;;;;;;;;;4992868;28;20030;-86
2022/06/08 02:29:51;;;;;;;3.75;2.80;;;;;;;;;;4976528;28;20033;-85
2022/06/08 02:35:23;;;;;;;3.00;2.70;;;;;;;;;;4992990;28;20092;-85
2022/06/08 02:37:53;;;;;;;4.30;3.10;;;;;;;;;;4993436;28;20022;-86
2022/06/08 02:40:25;;;;;;;4.35;2.97;;;;;;;;;;4992645;28;20105;-86
2022/06/08 02:42:54;;;;;;;4.43;2.95;;;;;;;;;;4992378;28;20077;-86
2022/06/08 02:45:24;;;;;;;4.80;3.20;;;;;;;;;;4976327;28;20033;-86
2022/06/08 02:47:51;;;;;;;2.92;2.60;;;;;;;;;;4976189;28;20518;-85
2022/06/08 02:50:20;;;;;;;3.28;2.65;;;;;;;;;;4976122;28;20034;-86
2022/06/08 02:52:47;;;;;;;3.08;2.78;;;;;;;;;;4976099;28;20033;-87
2022/06/08 02:55:20;;;;;;;2.83;2.53;;;;;;;;;;4976029;28;20023;-85
2022/06/08 02:57:50;;;;;;;3.67;2.58;;;;;;;;;;4992778;28;20058;-87
2022/06/08 03:00:24;;;;;;;3.50;2.80;;;;;;;;;;4992455;28;20022;-84
2022/06/08 03:03:00;;;;;;;3.20;2.70;;;;;;;;;;4992296;28;20459;-85
2022/06/08 03:05:33;;;;;;;2.70;2.50;;;;;;;;;;4975922;28;20034;-84
2022/06/08 03:08:11;;;;;;;3.53;2.50;;;;;;;;;;4975869;28;20034;-85
2022/06/08 03:10:40;;;;;;;2.97;2.60;;;;;;;;;;4976834;28;20041;-85
2022/06/08 03:13:10;;;;;;;3.90;2.80;;;;;;;;;;4996070;28;20041;-85
2022/06/08 03:15:37;;;;;;;3.38;2.75;;;;;;;;;;4995626;28;20030;-85
2022/06/08 03:18:02;;;;;;;3.08;2.58;;;;;;;;;;4995615;28;20030;-86
2022/06/08 03:20:28;;;;;;;3.05;2.72;;;;;;;;;;4995776;28;20037;-86
2022/06/08 03:22:54;;;;;;;4.43;2.88;;;;;;;;;;4995753;28;20038;-86
2022/06/08 03:25:21;;;;;;;3.95;2.85;;;;;;;;;;4979692;28;20030;-86
2022/06/08 03:27:48;;;;;;;3.50;2.90;;;;;;;;;;4995513;28;20438;-86
2022/06/08 03:30:14;;;;;;;5.07;3.05;;;;;;;;;;4996648;28;20100;-86
2022/06/08 03:32:39;;;;;;;3.72;2.97;;;;;;;;;;4995522;28;20032;-86
2022/06/08 03:35:05;;;;;;;3.00;2.42;;;;;;;;;;4995425;28;20034;-87
2022/06/08 03:37:31;;;;;;;3.72;3.05;;;;;;;;;;4995696;28;20034;-86
2022/06/08 03:39:56;;;;;;;3.50;2.80;;;;;;;;;;4995237;28;20029;-86
2022/06/08 03:42:21;;;;;;;2.83;2.40;;;;;;;;;;4996358;28;20050;-86
2022/06/08 03:44:47;;;;;;;3.95;2.95;;;;;;;;;;4995168;28;20038;-86
2022/06/08 03:47:17;;;;;;;5.53;3.00;;;;;;;;;;4995125;28;20109;-85
2022/06/08 03:49:43;;;;;;;3.60;2.83;;;;;;;;;;4978852;28;20060;-87
2022/06/08 03:52:16;;;;;;;5.22;3.20;;;;;;;;;;4979432;28;20050;-86
2022/06/08 03:54:46;;;;;;;3.38;2.83;;;;;;;;;;4979020;28;20030;-84
2022/06/08 03:57:14;;;;;;;3.78;2.60;;;;;;;;;;4996851;28;20479;-84
2022/06/08 03:59:41;;;;;;;4.30;3.10;;;;;;;;;;4995354;28;20022;-85
2022/06/08 04:02:08;;;;;;;6.65;3.00;;;;;;;;;;4978977;28;20034;-85
2022/06/08 04:04:33;;;;;;;3.10;2.80;;;;;;;;;;4994901;28;20026;-86
2022/06/08 04:06:59;;;;;;;3.80;2.90;;;;;;;;;;4994772;28;20053;-86
2022/06/08 04:09:24;;;;;;;3.90;3.13;;;;;;;;;;4994757;28;20116;-83
2022/06/08 04:11:50;;;;;;;3.72;3.05;;;;;;;;;;4979190;28;20153;-82
2022/06/08 04:14:15;;;;;;;2.90;2.63;;;;;;;;;;4995882;28;20030;-81
2022/06/08 04:16:41;;;;;;;3.78;2.80;;;;;;;;;;4994954;28;20034;-84
2022/06/08 04:19:06;;;;;;;5.10;3.80;;;;;;;;;;4996068;28;20027;-86
2022/06/08 04:21:32;;;;;;;7.28;3.45;;;;;;;;;;4978248;28;20030;-84
2022/06/08 04:23:58;;;;;;;4.35;3.60;;;;;;;;;;4978112;28;20030;-84
2022/06/08 04:26:23;;;;;;;5.32;3.70;;;;;;;;;;4995619;28;20545;-84
2022/06/08 04:28:49;;;;;;;7.15;3.40;;;;;;;;;;4978269;28;20057;-84
2022/06/08 04:31:15;;;;;;;7.60;3.95;;;;;;;;;;4994356;28;20030;-81
2022/06/08 04:33:41;;;;;;;7.55;3.95;;;;;;;;;;4995253;28;20065;-81
2022/06/08 04:36:07;;;;;;;9.23;4.25;;;;;;;;;;4995152;28;20030;-80
2022/06/08 04:38:33;;;;;;;9.90;4.07;;;;;;;;;;4978569;28;20030;-82
2022/06/08 04:40:59;;;;;;;7.57;4.22;;;;;;;;;;4994742;28;20050;-80
2022/06/08 04:43:25;;;;;;;9.20;4.82;;;;;;;;;;4994694;28;20418;-82
2022/06/08 04:45:50;;;;;;;7.68;4.15;;;;;;;;;;4994845;28;20125;-82
2022/06/08 04:48:16;;;;;;;6.88;4.13;;;;;;;;;;4994700;28;20124;-85
2022/06/08 04:50:41;;;;;;;9.23;4.72;;;;;;;;;;4978047;28;20062;-84
2022/06/08 04:53:07;;;;;;;9.50;4.70;;;;;;;;;;4994299;28;20109;-81
2022/06/08 04:55:33;;;;;;;7.47;4.35;;;;;;;;;;4978086;28;20026;-86
2022/06/08 04:57:58;;;;;;;37.03;10.45;;;;;;;;;;4994538;28;20088;-85
2022/06/08 05:00:24;;;;;;;29.67;9.57;;;;;;;;;;4995278;28;20026;-86
2022/06/08 05:02:51;;;;;;;30.20;9.00;;;;;;;;;;4994613;28;20038;-88
2022/06/08 05:05:26;;;;;;;30.88;9.20;;;;;;;;;;4994346;28;20026;-87
2022/06/08 05:07:53;;;;;;;26.45;8.75;;;;;;;;;;4977998;28;20076;-86
2022/06/08 05:10:20;;;;;;;21.42;8.40;;;;;;;;;;4978346;28;20368;-82
2022/06/08 05:12:46;;;;;;;22.55;7.70;;;;;;;;;;4996972;28;20039;-84
2022/06/08 05:15:18;;;;;;;19.65;7.68;;;;;;;;;;5003797;28;20034;-86
2022/06/08 05:17:44;;;;;;;25.67;8.25;;;;;;;;;;5003263;28;20030;-88
2022/06/08 05:20:10;;;;;;;17.63;7.28;;;;;;;;;;5000821;28;20027;-87
2022/06/08 05:22:37;;;;;;;18.60;6.40;;;;;;;;;;4999733;28;20392;-89
2022/06/08 05:25:07;;;;;;;18.27;6.72;;;;;;;;;;4980801;28;20113;-85
2022/06/08 05:27:32;;;;;;;14.85;6.40;;;;;;;;;;4997989;28;20027;-89
2022/06/08 05:29:58;;;;;;;15.23;6.25;;;;;;;;;;4981664;28;20442;-85
2022/06/08 05:32:23;;;;;;;15.05;6.40;;;;;;;;;;4998171;28;20071;-85
2022/06/08 05:34:49;;;;;;;19.67;5.47;;;;;;;;;;4998939;28;20037;-87
2022/06/08 05:37:14;;;;;;;13.82;5.25;;;;;;;;;;5004124;28;20118;-84
2022/06/08 05:39:41;;;;;;;12.52;5.68;;;;;;;;;;4989834;28;20031;-85
2022/06/08 05:42:07;;;;;;;12.82;5.45;;;;;;;;;;5001905;28;20080;-86
2022/06/08 05:44:32;;;;;;;9.80;5.15;;;;;;;;;;4980588;28;20117;-85
2022/06/08 05:46:58;;;;;;;11.88;4.35;;;;;;;;;;4981496;28;20121;-85
2022/06/08 05:49:23;;;;;;;7.53;4.47;;;;;;;;;;4980839;28;20035;-85
2022/06/08 05:51:49;;;;;;;10.52;4.90;;;;;;;;;;4997175;28;20042;-85
2022/06/08 05:54:14;;;;;;;8.13;4.25;;;;;;;;;;4998360;28;20038;-85
2022/06/08 05:56:40;;;;;;;11.80;4.78;;;;;;;;;;4997283;28;20105;-85
2022/06/08 05:59:06;;;;;;;13.38;4.88;;;;;;;;;;4980049;28;20363;-84
2022/06/08 06:01:33;;;;;;;9.88;4.15;;;;;;;;;;4979926;28;20033;-84
2022/06/08 06:04:00;;;;;;;8.52;4.18;;;;;;;;;;4980506;28;20125;-84
2022/06/08 06:06:26;;;;;;;7.88;4.22;;;;;;;;;;4980340;28;20037;-84
2022/06/08 06:08:51;;;;;;;9.35;4.22;;;;;;;;;;4980123;28;20030;-85
2022/06/08 06:11:17;;;;;;;9.65;4.40;;;;;;;;;;4980655;28;20101;-84
2022/06/08 06:13:43;;;;;;;8.13;3.78;;;;;;;;;;4979831;28;20118;-85
2022/06/08 06:16:08;;;;;;;6.53;3.85;;;;;;;;;;4980755;28;20027;-85
2022/06/08 06:18:34;;;;;;;9.32;4.15;;;;;;;;;;4980495;28;20406;-85
2022/06/08 06:20:59;;;;;;;5.93;3.60;;;;;;;;;;4996635;28;20032;-85
2022/06/08 06:23:26;;;;;;;5.88;3.63;;;;;;;;;;4979990;28;20438;-84
2022/06/08 06:25:51;;;;;;;5.60;3.92;;;;;;;;;;4995677;28;20439;-85
2022/06/08 06:28:17;;;;;;;5.72;3.38;;;;;;;;;;4993403;28;20100;-85
2022/06/08 06:30:42;;;;;;;7.63;3.72;;;;;;;;;;4976474;28;20402;-85
2022/06/08 06:33:12;;;;;;;6.68;4.03;;;;;;;;;;4993670;28;20070;-86
2022/06/08 06:35:40;;;;;;;9.45;3.40;;;;;;;;;;4993439;28;20038;-86
2022/06/08 06:38:06;;;;;;;6.00;3.92;;;;;;;;;;4977092;28;20419;-85
2022/06/08 06:40:32;;;;;;;4.90;3.25;;;;;;;;;;4992979;28;20027;-85
2022/06/08 06:42:57;;;;;;;4.72;2.78;;;;;;;;;;4977550;28;20466;-84
2022/06/08 06:45:23;;;;;;;6.05;3.10;;;;;;;;;;4994171;28;20030;-84
2022/06/08 06:47:49;;;;;;;5.82;2.90;;;;;;;;;;4981293;28;20467;-86
2022/06/08 06:50:16;;;;;;;8.55;3.30;;;;;;;;;;4998065;28;20030;-85
2022/06/08 06:52:42;;;;;;;3.90;2.55;;;;;;;;;;4997438;28;20485;-86
2022/06/08 06:55:09;;;;;;;6.72;3.08;;;;;;;;;;4980724;28;20030;-86
2022/06/08 06:57:35;;;;;;;3.38;2.67;;;;;;;;;;4981430;28;20505;-85
2022/06/08 07:00:00;;;;;;;6.22;3.13;;;;;;;;;;4996959;28;20030;-86
2022/06/08 07:02:26;;;;;;;4.13;2.65;;;;;;;;;;4997394;28;20429;-85
2022/06/08 07:04:51;;;;;;;4.25;2.83;;;;;;;;;;4980644;28;20041;-84
2022/06/08 07:07:17;;;;;;;5.35;2.78;;;;;;;;;;4980374;28;20034;-86
2022/06/08 07:09:42;;;;;;;4.43;2.58;;;;;;;;;;4996858;28;20035;-85
2022/06/08 07:12:10;;;;;;;4.07;2.40;;;;;;;;;;4996562;28;20507;-85
2022/06/08 07:14:36;;;;;;;4.05;2.40;;;;;;;;;;4996787;28;20100;-85
2022/06/08 07:17:01;;;;;;;3.35;2.22;;;;;;;;;;4996891;28;20483;-84
2022/06/08 07:19:26;;;;;;;2.83;1.98;;;;;;;;;;4996898;28;20053;-84
2022/06/08 07:21:52;;;;;;;2.65;2.00;;;;;;;;;;4998517;28;20061;-86
2022/06/08 07:24:21;;;;;;;4.95;2.13;;;;;;;;;;5003739;28;20030;-83
2022/06/08 07:26:47;;;;;;;2.58;2.00;;;;;;;;;;4983098;28;20030;-82
2022/06/08 07:29:13;;;;;;;5.53;2.72;;;;;;;;;;4995907;28;20121;-82
2022/06/08 07:31:39;;;;;;;4.78;2.22;;;;;;;;;;4996074;28;20117;-83
2022/06/08 07:34:05;;;;;;;3.33;1.95;;;;;;;;;;4995831;28;20057;-83
2022/06/08 07:36:30;;;;;;;4.45;2.10;;;;;;;;;;4996270;28;20057;-83
2022/06/08 07:38:56;;;;;;;4.13;2.00;;;;;;;;;;4963621;28;20077;-83
2022/06/08 07:41:22;;;;;;;2.30;1.80;;;;;;;;;;4997288;28;20162;-83
2022/06/08 07:43:47;;;;;;;2.08;1.77;;;;;;;;;;4997483;28;20065;-83
2022/06/08 07:46:13;;;;;;;5.35;2.00;;;;;;;;;;4996083;28;20045;-83
2022/06/08 07:51:22;;;;;;;;;;;;;;;;;;4997308;28;20088;-82
2022/06/08 07:53:47;;;;;;;2.00;1.70;;;;;;;;;;4995888;28;19914;-83
2022/06/08 07:56:13;;;;;;;1.85;1.70;;;;;;;;;;4996947;28;20026;-83
2022/06/08 07:58:38;;;;;;;2.25;1.55;;;;;;;;;;4979602;28;20041;-83
2022/06/08 08:01:04;;;;;;;2.33;1.80;;;;;;;;;;4995659;28;20105;-82
2022/06/08 08:03:29;;;;;;;2.42;1.75;;;;;;;;;;4996193;28;20030;-82
2022/06/08 08:05:55;;;;;;;4.28;1.70;;;;;;;;;;4963758;28;20549;-82
2022/06/08 08:08:20;;;;;;;2.17;1.60;;;;;;;;;;4996659;28;20052;-82
2022/06/08 08:10:46;;;;;;;1.60;1.50;;;;;;;;;;4996497;28;20402;-82
2022/06/08 08:13:12;;;;;;;1.83;1.48;;;;;;;;;;4995778;28;20029;-82
2022/06/08 08:15:39;;;;;;;2.65;1.73;;;;;;;;;;4995225;28;20038;-82
2022/06/08 08:18:04;;;;;;;3.85;1.52;;;;;;;;;;4978941;28;20057;-84
2022/06/08 08:20:31;;;;;;;2.53;1.70;;;;;;;;;;4995898;28;20026;-82
2022/06/08 08:22:57;;;;;;;1.90;1.75;;;;;;;;;;4979145;28;20026;-82
2022/06/08 08:25:22;;;;;;;1.70;1.60;;;;;;;;;;4995331;28;20434;-83
2022/06/08 08:27:49;;;;;;;1.75;1.50;;;;;;;;;;4978810;28;20155;-83
2022/06/08 08:30:17;;;;;;;2.00;1.48;;;;;;;;;;4995298;28;20026;-82
2022/06/08 08:32:43;;;;;;;2.13;1.52;;;;;;;;;;4994949;28;20026;-83
2022/06/08 08:35:10;;;;;;;1.63;1.52;;;;;;;;;;4996402;28;20065;-82
2022/06/08 08:37:36;;;;;;;2.40;1.50;;;;;;;;;;4996192;28;20033;-82
2022/06/08 08:40:04;;;;;;;3.10;1.77;;;;;;;;;;4994664;28;20097;-82
2022/06/08 08:42:29;;;;;;;5.90;1.65;;;;;;;;;;4978938;28;20060;-83
2022/06/08 08:45:02;;;;;;;1.55;1.33;;;;;;;;;;4995176;28;20034;-82
2022/06/08 08:47:41;;;;;;;1.40;1.23;;;;;;;;;;4978649;28;20125;-82
2022/06/08 08:50:22;;;;;;;4.13;1.42;;;;;;;;;;4994616;28;20101;-82
2022/06/08 08:52:51;;;;;;;2.67;1.45;;;;;;;;;;4996294;28;20026;-83
2022/06/08 08:55:23;;;;;;;3.53;1.50;;;;;;;;;;4994634;28;20402;-82
2022/06/08 08:57:57;;;;;;;3.35;1.85;;;;;;;;;;4995323;28;20501;-83
2022/06/08 09:00:54;;;;;;;3.17;1.77;;;;;;;;;;4996417;28;20033;-85
2022/06/08 09:03:25;;;;;;;3.97;2.13;;;;;;;;;;4995630;28;20453;-85
2022/06/08 09:05:54;;;;;;;4.45;1.83;;;;;;;;;;4994790;28;20037;-86
2022/06/08 09:08:21;;;;;;;3.80;2.10;;;;;;;;;;4980322;28;20026;-82
2022/06/08 09:10:47;;;;;;;8.50;2.20;;;;;;;;;;4994880;28;20041;-85
2022/06/08 09:13:18;;;;;;;4.10;1.90;;;;;;;;;;4978360;28;20022;-85
2022/06/08 09:15:56;;;;;;;5.10;1.95;;;;;;;;;;4979243;28;20062;-85
2022/06/08 09:18:30;;;;;;;3.60;1.90;;;;;;;;;;4994389;28;20034;-86
2022/06/08 09:20:56;;;;;;;4.05;1.90;;;;;;;;;;4995916;28;20385;-87
2022/06/08 09:23:41;;;;;;;5.47;2.13;;;;;;;;;;4978189;28;20447;-87
2022/06/08 09:26:16;;;;;;;6.50;1.98;;;;;;;;;;4998054;28;20459;-84
2022/06/08 09:28:42;;;;;;;2.58;1.83;;;;;;;;;;4994591;28;20026;-88
2022/06/08 09:31:31;;;;;;;5.72;1.80;;;;;;;;;;4994751;28;20038;-86
2022/06/08 09:34:17;;;;;;;5.68;1.90;;;;;;;;;;4994577;28;20019;-86
2022/06/08 09:36:43;;;;;;;4.28;1.90;;;;;;;;;;4994078;28;20031;-85
2022/06/08 09:39:12;;;;;;;3.03;1.75;;;;;;;;;;4978140;28;20026;-85
2022/06/08 09:41:43;;;;;;;2.40;1.50;;;;;;;;;;4978419;28;20053;-85
2022/06/08 09:44:29;;;;;;;4.00;1.90;;;;;;;;;;4978600;28;20046;-85
2022/06/08 09:53:20;;;;;;;4.38;2.10;;;;;;;;;;4994218;28;20040;-86
2022/06/08 09:55:57;;;;;;;4.00;1.60;;;;;;;;;;4993773;28;20053;-87
2022/06/08 09:58:54;;;;;;;3.08;1.55;;;;;;;;;;4993741;28;20037;-87
2022/06/08 10:01:40;;;;;;;1.92;1.40;;;;;;;;;;4993443;28;20021;-87
2022/06/08 10:04:26;;;;;;;2.28;1.33;;;;;;;;;;4993723;28;20489;-86
2022/06/08 10:06:58;;;;;;;3.28;1.50;;;;;;;;;;4993285;28;20129;-86
2022/06/08 10:09:29;;;;;;;3.00;1.45;;;;;;;;;;4993265;28;20026;-87
2022/06/08 10:12:16;;;;;;;2.67;1.63;;;;;;;;;;4993668;28;20034;-86
2022/06/08 10:15:24;;;;;;;2.33;1.35;;;;;;;;;;4993859;28;20109;-87
2022/06/08 10:18:01;;;;;;;3.05;1.42;;;;;;;;;;4937208;29;20391;-87
2022/06/08 10:20:38;;;;;;;3.33;1.55;;;;;;;;;;4953030;29;20031;-86
2022/06/08 10:23:11;;;;;;;7.00;1.60;;;;;;;;;;4921250;29;20078;-86
2022/06/08 10:25:50;;;;;;;1.90;1.40;;;;;;;;;;4937270;29;20046;-86
2022/06/08 10:28:22;;;;;;;2.70;1.45;;;;;;;;;;4939250;29;20027;-86
2022/06/08 10:30:55;;;;;;;1.92;1.23;;;;;;;;;;4937352;29;20518;-86
2022/06/08 10:33:29;;;;;;;1.57;1.30;;;;;;;;;;4937565;29;20523;-86
2022/06/08 10:35:55;;;;;;;2.67;1.25;;;;;;;;;;4937808;29;20113;-86
2022/06/08 10:38:30;;;;;;;1.70;1.30;;;;;;;;;;4937778;29;20094;-86
2022/06/08 10:41:00;;;;;;;1.52;1.08;;;;;;;;;;4937019;29;20027;-86
2022/06/08 10:43:31;;;;;;;2.72;1.48;;;;;;;;;;4937118;29;20031;-86
2022/06/08 10:46:01;;;;;;;1.50;1.40;;;;;;;;;;4937112;29;20507;-86
2022/06/08 10:48:35;;;;;;;3.00;1.20;;;;;;;;;;4937239;29;20118;-86
2022/06/08 10:51:29;;;;;;;1.77;1.20;;;;;;;;;;4962541;28;20034;-87
2022/06/08 10:56:39;;;;;;;1.77;1.40;;;;;;;;;;4996446;28;20409;-85
2022/06/08 10:59:08;;;;;;;1.73;1.30;;;;;;;;;;4997049;28;20019;-86
2022/06/08 11:01:41;;;;;;;1.17;1.05;;;;;;;;;;4995538;28;20030;-86
2022/06/08 11:04:38;;;;;;;1.92;1.08;;;;;;;;;;4996050;28;20023;-86
2022/06/08 11:07:11;;;;;;;1.45;1.15;;;;;;;;;;4996646;28;20030;-85
2022/06/08 11:09:36;;;;;;;2.08;1.25;;;;;;;;;;4995494;28;20027;-86
2022/06/08 11:12:16;;;;;;;1.23;1.10;;;;;;;;;;4997663;28;20113;-85
2022/06/08 11:14:44;;;;;;;2.28;1.30;;;;;;;;;;4996471;28;20338;-85
2022/06/08 11:17:29;;;;;;;2.50;1.30;;;;;;;;;;4994703;28;20089;-85
2022/06/08 11:20:16;;;;;;;2.70;1.10;;;;;;;;;;4995477;28;20026;-85
2022/06/08 11:22:59;;;;;;;3.03;1.20;;;;;;;;;;4998228;28;20109;-87
2022/06/08 11:25:30;;;;;;;2.90;1.45;;;;;;;;;;4980345;28;20030;-87
2022/06/08 11:28:33;;;;;;;11.15;3.30;;;;;;;;;;4979345;28;20022;-89
2022/06/08 11:31:05;;;;;;;7.32;2.33;;;;;;;;;;4999438;28;20117;-87
2022/06/08 11:34:21;;;;;;;9.52;2.60;;;;;;;;;;4984426;28;20022;-89
2022/06/08 11:37:04;;;;;;;6.40;1.80;;;;;;;;;;4940412;29;20042;-90
2022/06/08 11:39:45;;;;;;;12.40;1.75;;;;;;;;;;4995677;28;20478;-87
2022/06/08 11:42:24;;;;;;;4.47;1.83;;;;;;;;;;4995552;28;20057;-88
2022/06/08 11:44:54;;;;;;;6.80;1.38;;;;;;;;;;4998457;28;20038;-88
2022/06/08 11:47:34;;;;;;;3.67;1.70;;;;;;;;;;4979608;28;20088;-88
2022/06/08 11:50:11;;;;;;;2.67;1.30;;;;;;;;;;4979310;28;20154;-87
2022/06/08 11:52:41;;;;;;;9.15;1.42;;;;;;;;;;4979815;28;20438;-87
2022/06/08 11:55:13;;;;;;;1.95;1.20;;;;;;;;;;4995524;28;20626;-87
2022/06/08 11:57:43;;;;;;;2.67;1.30;;;;;;;;;;4996813;28;20026;-89
2022/06/08 12:00:21;;;;;;;7.50;1.55;;;;;;;;;;4995526;28;20467;-88
2022/06/08 12:02:50;;;;;;;4.78;1.50;;;;;;;;;;4979863;28;20109;-88
2022/06/08 12:05:21;;;;;;;4.72;1.55;;;;;;;;;;4981392;28;20121;-87
2022/06/08 12:07:53;;;;;;;5.30;1.50;;;;;;;;;;4979507;28;20018;-89
2022/06/08 12:10:24;;;;;;;7.17;1.27;;;;;;;;;;4995519;28;20037;-85
2022/06/08 12:12:50;;;;;;;4.78;1.48;;;;;;;;;;4999106;28;20287;-86
2022/06/08 12:15:39;;;;;;;7.05;1.45;;;;;;;;;;4980782;28;20085;-86
2022/06/08 12:18:37;;;;;;;2.10;1.30;;;;;;;;;;4997773;28;20042;-85
2022/06/08 12:21:42;;;;;;;3.70;2.20;;;;;;;;;;4997361;28;20018;-85
2022/06/08 12:24:13;;;;;;;6.60;1.50;;;;;;;;;;4995898;28;20057;-85
2022/06/08 12:26:55;;;;;;;3.75;1.30;;;;;;;;;;4996621;28;20049;-85
2022/06/08 12:29:28;;;;;;;5.28;1.25;;;;;;;;;;4996785;28;20076;-85
2022/06/08 12:32:16;;;;;;;9.45;2.00;;;;;;;;;;4980709;28;20030;-87
2022/06/08 12:34:49;;;;;;;5.13;1.50;;;;;;;;;;4997351;28;20065;-86
2022/06/08 12:37:30;;;;;;;4.53;1.70;;;;;;;;;;4980449;28;20041;-88
2022/06/08 12:39:59;;;;;;;4.18;1.50;;;;;;;;;;4998335;28;20022;-87
2022/06/08 12:42:27;;;;;;;3.78;1.27;;;;;;;;;;4978365;28;20054;-88
2022/06/08 12:44:54;;;;;;;3.17;1.10;;;;;;;;;;4978151;28;20022;-87
2022/06/08 12:47:21;;;;;;;7.07;1.30;;;;;;;;;;4978473;28;20442;-87
2022/06/08 12:49:59;;;;;;;4.22;1.50;;;;;;;;;;4994535;28;20030;-87
2022/06/08 12:52:32;;;;;;;3.10;1.30;;;;;;;;;;4978648;28;20037;-85
2022/06/08 12:54:58;;;;;;;5.22;1.30;;;;;;;;;;4978468;28;20018;-85
2022/06/08 12:57:28;;;;;;;4.20;1.35;;;;;;;;;;4994861;28;20061;-84
2022/06/08 12:59:57;;;;;;;6.10;1.30;;;;;;;;;;4978441;28;20022;-88
2022/06/08 13:02:27;;;;;;;3.60;1.33;;;;;;;;;;4994905;28;20027;-89
2022/06/08 13:04:53;;;;;;;7.68;1.65;;;;;;;;;;4995758;28;20065;-86
2022/06/08 13:07:23;;;;;;;3.75;1.30;;;;;;;;;;4977882;28;20060;-86
2022/06/08 13:09:48;;;;;;;5.05;1.30;;;;;;;;;;4997476;28;20030;-88
2022/06/08 13:12:19;;;;;;;5.82;1.40;;;;;;;;;;4981132;28;20031;-88
2022/06/08 13:14:44;;;;;;;3.97;1.10;;;;;;;;;;4978197;28;20076;-84
2022/06/08 13:17:11;;;;;;;6.55;1.40;;;;;;;;;;4995509;28;20378;-87
2022/06/08 13:19:37;;;;;;;3.83;1.23;;;;;;;;;;4993934;28;20014;-85
2022/06/08 13:22:02;;;;;;;3.03;1.10;;;;;;;;;;4994486;28;20503;-83
2022/06/08 13:24:28;;;;;;;2.60;1.02;;;;;;;;;;4979339;28;20121;-86
2022/06/08 13:26:54;;;;;;;4.13;1.30;;;;;;;;;;4997693;28;20117;-84
2022/06/08 13:29:20;;;;;;;5.88;1.30;;;;;;;;;;4994890;28;20022;-84
2022/06/08 13:31:46;;;;;;;4.43;1.27;;;;;;;;;;4994926;28;20027;-88
2022/06/08 13:34:13;;;;;;;4.18;1.30;;;;;;;;;;4979512;28;20398;-87
2022/06/08 13:36:41;;;;;;;4.93;1.20;;;;;;;;;;4989237;28;20062;-84
2022/06/08 13:39:21;;;;;;;1.70;1.02;;;;;;;;;;4999002;28;20071;-86
2022/06/08 13:41:49;;;;;;;4.03;1.40;;;;;;;;;;4999457;28;20410;-88
2022/06/08 13:44:25;;;;;;;7.55;1.40;;;;;;;;;;5003942;28;20030;-85
2022/06/08 13:46:54;;;;;;;2.42;1.38;;;;;;;;;;4996368;28;20033;-86
2022/06/08 13:49:21;;;;;;;5.90;1.38;;;;;;;;;;4978796;28;20038;-88
2022/06/08 13:51:46;;;;;;;2.72;1.17;;;;;;;;;;4977882;28;20033;-89
2022/06/08 13:54:42;;;;;;;4.20;1.60;;;;;;;;;;4977524;28;20026;-89
2022/06/08 13:57:13;;;;;;;3.05;1.25;;;;;;;;;;4969490;28;20042;-90
2022/06/08 13:59:39;;;;;;;4.20;1.17;;;;;;;;;;4978030;28;20070;-91
2022/06/08 14:02:22;;;;;;;3.75;1.20;;;;;;;;;;4961333;28;20035;-88
2022/06/08 14:04:49;;;;;;;3.03;1.20;;;;;;;;;;4993688;28;20031;-87
2022/06/08 14:13:35;;;;;;;1.90;1.10;;;;;;;;;;4993643;28;20489;-87
2022/06/08 14:16:02;;;;;;;2.28;1.17;;;;;;;;;;4993062;28;20048;-87
2022/06/08 14:18:31;;;;;;;2.00;1.55;;;;;;;;;;4993175;28;20409;-85
2022/06/08 14:20:57;;;;;;;2.75;0.95;;;;;;;;;;4995266;28;20018;-88
2022/06/08 14:23:24;;;;;;;3.28;0.98;;;;;;;;;;4976930;28;20538;-85
2022/06/08 14:25:52;;;;;;;2.38;1.02;;;;;;;;;;4993399;28;20075;-87
2022/06/08 14:28:18;;;;;;;2.03;1.00;;;;;;;;;;4992889;28;20018;-85
2022/06/08 14:30:46;;;;;;;2.55;1.25;;;;;;;;;;4992967;28;20517;-85
2022/06/08 14:33:24;;;;;;;0.95;0.88;;;;;;;;;;4993194;28;20033;-87
2022/06/08 14:35:51;;;;;;;1.98;1.00;;;;;;;;;;4993029;28;20109;-86
2022/06/08 14:38:22;;;;;;;4.30;1.20;;;;;;;;;;4976681;28;20037;-86
2022/06/08 14:40:48;;;;;;;1.70;0.88;;;;;;;;;;4993244;28;20026;-86
2022/06/08 14:43:14;;;;;;;2.92;1.10;;;;;;;;;;4992810;28;20498;-86
2022/06/08 14:45:41;;;;;;;3.50;1.25;;;;;;;;;;4977133;28;20034;-86
2022/06/08 14:48:14;;;;;;;2.33;1.00;;;;;;;;;;4995365;28;20034;-85
2022/06/08 14:50:40;;;;;;;6.43;1.38;;;;;;;;;;4996168;28;20025;-85
2022/06/08 14:53:06;;;;;;;1.67;0.80;;;;;;;;;;4996195;28;20031;-86
2022/06/08 14:58:17;;;;;;;;;;;;;;;;;;4996846;28;20045;-85
2022/06/08 15:00:44;;;;;;;4.13;0.80;;;;;;;;;;4995286;28;19960;-86
2022/06/08 15:03:22;;;;;;;1.02;0.82;;;;;;;;;;4995115;28;20030;-88
2022/06/08 15:05:48;;;;;;;1.05;0.90;;;;;;;;;;4999599;28;20105;-86
2022/06/08 15:08:16;;;;;;;2.60;0.90;;;;;;;;;;5007144;28;20045;-85
2022/06/08 15:13:27;;;;;;;1.58;0.80;;;;;;;;;;4996799;28;20073;-85
2022/06/08 15:15:52;;;;;;;3.83;0.98;;;;;;;;;;4997701;28;20066;-85
2022/06/08 15:18:17;;;;;;;2.45;1.00;;;;;;;;;;4996674;28;20033;-88
2022/06/08 15:20:43;;;;;;;1.00;0.80;;;;;;;;;;4981017;28;20060;-89
2022/06/08 15:23:09;;;;;;;1.67;0.88;;;;;;;;;;4996684;28;20108;-84
2022/06/08 15:25:38;;;;;;;1.52;0.70;;;;;;;;;;4997651;28;20034;-84
2022/06/08 15:28:14;;;;;;;2.40;0.70;;;;;;;;;;4996377;28;20061;-84
2022/06/08 15:30:41;;;;;;;2.50;1.25;;;;;;;;;;4995861;28;20022;-81